createdAt,value
2023-04-28T00:02:28.883Z,101503.97
2023-04-28T00:04:59.482Z,101499.78
2023-04-28T00:07:29.018Z,101503.41
2023-04-28T00:09:58.672Z,101504.09
2023-04-28T00:12:28.363Z,101500.03
2023-04-28T00:14:57.750Z,101503.09
2023-04-28T00:17:27.202Z,101491.06
2023-04-28T00:19:56.727Z,101495.25
2023-04-28T00:22:25.827Z,101496.69
2023-04-28T00:24:54.934Z,101495.28
2023-04-28T00:27:24.616Z,101497.50
2023-04-28T00:29:55.421Z,101503.31
2023-04-28T00:32:25.134Z,101493.41
2023-04-28T00:34:55.474Z,101496.16
2023-04-28T00:37:25.379Z,101497.22
2023-04-28T00:39:58.586Z,101489.50
2023-04-28T00:42:28.883Z,101486.78
2023-04-28T00:44:59.052Z,101494.44
2023-04-28T00:47:28.771Z,101489.53
2023-04-28T00:53:16.262Z,101490.75
2023-04-28T00:55:46.151Z,101481.09
2023-04-28T00:58:15.655Z,101480.84
2023-04-28T01:00:45.232Z,101476.75
2023-04-28T01:03:14.709Z,101478.78
2023-04-28T01:05:44.514Z,101479.41
2023-04-28T01:08:14.538Z,101475.09
2023-04-28T01:10:47.303Z,101476.75
2023-04-28T01:13:31.704Z,101477.28
2023-04-28T01:16:02.109Z,101478.53
2023-04-28T01:18:43.088Z,101471.28
2023-04-28T01:21:15.119Z,101471.63
2023-04-28T01:23:48.415Z,101467.94
2023-04-28T01:26:23.844Z,101470.59
2023-04-28T01:28:56.704Z,101469.81
2023-04-28T01:31:37.676Z,101456.16
2023-04-28T01:34:11.002Z,101459.50
2023-04-28T01:40:36.186Z,101453.78
2023-04-28T01:43:06.053Z,101452.97
2023-04-28T01:45:35.737Z,101449.09
2023-04-28T01:48:06.864Z,101448.56
2023-04-28T01:50:36.948Z,101450.16
2023-04-28T01:53:07.168Z,101443.78
2023-04-28T01:55:37.092Z,101444.78
2023-04-28T01:58:11.241Z,101438.88
2023-04-28T02:00:43.957Z,101440.91
2023-04-28T02:03:14.536Z,101444.13
2023-04-28T02:05:44.141Z,101435.66
2023-04-28T02:08:17.685Z,101434.16
2023-04-28T02:10:59.249Z,101431.22
2023-04-28T02:13:29.333Z,101437.59
2023-04-28T02:16:06.326Z,101432.31
2023-04-28T02:18:37.411Z,101437.03
2023-04-28T02:21:13.790Z,101434.09
2023-04-28T02:23:43.786Z,101435.56
2023-04-28T02:26:14.168Z,101440.38
2023-04-28T02:28:50.620Z,101436.16
2023-04-28T02:31:22.442Z,101440.72
2023-04-28T02:33:52.875Z,101432.22
2023-04-28T02:36:22.694Z,101442.06
2023-04-28T02:39:01.278Z,101425.28
2023-04-28T02:41:54.034Z,101425.19
2023-04-28T02:45:22.869Z,101432.63
2023-04-28T02:48:04.674Z,101431.00
2023-04-28T02:50:42.850Z,101435.75
2023-04-28T02:53:24.158Z,101435.38
2023-04-28T03:11:06.828Z,101443.94
2023-04-28T03:13:53.132Z,101443.84
2023-04-28T03:20:47.835Z,101434.94
2023-04-28T03:24:07.740Z,101444.31
2023-04-28T03:27:57.860Z,101441.31
2023-04-28T03:31:36.357Z,101436.84
2023-04-28T03:39:16.964Z,101448.06
2023-04-28T03:41:55.180Z,101450.44
2023-04-28T03:45:03.880Z,101466.09
2023-04-28T03:47:47.554Z,101457.84
2023-04-28T03:50:27.338Z,101459.44
2023-04-28T03:54:02.951Z,101470.72
2023-04-28T03:56:53.300Z,101464.41
2023-04-28T03:59:50.355Z,101462.16
2023-04-28T04:02:35.529Z,101460.53
2023-04-28T04:05:47.762Z,101458.97
2023-04-28T04:08:36.324Z,101467.09
2023-04-28T04:12:10.230Z,101474.34
2023-04-28T04:24:28.325Z,101464.84
2023-04-28T04:27:42.819Z,101462.50
2023-04-28T04:30:36.976Z,101468.91
2023-04-28T04:33:19.822Z,101462.56
2023-04-28T04:35:59.659Z,101461.00
2023-04-28T04:38:30.611Z,101465.41
2023-04-28T04:41:33.146Z,101468.22
2023-04-28T04:44:50.935Z,101463.44
2023-04-28T04:47:38.389Z,101457.84
2023-04-28T04:50:25.912Z,101463.47
2023-04-28T04:53:32.334Z,101452.72
2023-04-28T05:13:27.821Z,101448.38
2023-04-28T05:24:31.718Z,101424.03
2023-04-28T05:42:16.701Z,101430.75
2023-04-28T05:45:12.184Z,101436.34
2023-04-28T05:49:12.492Z,101425.16
2023-04-28T05:51:13.750Z,101424.34
2023-04-28T05:54:05.695Z,101425.94
2023-04-28T05:56:46.173Z,101428.31
2023-04-28T05:59:37.933Z,101437.88
2023-04-28T06:06:24.902Z,101438.63
2023-04-28T06:09:47.673Z,101425.00
2023-04-28T06:12:43.582Z,101428.97
2023-04-28T06:15:45.344Z,101425.78
2023-04-28T06:18:49.601Z,101415.44
2023-04-28T06:21:45.389Z,101422.59
2023-04-28T06:24:17.879Z,101428.91
2023-04-28T06:27:13.018Z,101426.47
2023-04-28T06:30:42.112Z,101423.63
2023-04-28T06:33:32.063Z,101425.25
2023-04-28T06:36:27.910Z,101429.47
2023-04-28T06:39:32.881Z,101423.84
2023-04-28T06:47:05.211Z,101421.66
2023-04-28T06:50:02.114Z,101416.81
2023-04-28T06:56:16.609Z,101425.44
2023-04-28T06:59:16.673Z,101421.50
2023-04-28T07:02:24.573Z,101420.56
2023-04-28T07:06:03.809Z,101419.88
2023-04-28T07:08:51.107Z,101411.84
2023-04-28T07:12:09.363Z,101418.94
2023-04-28T07:15:00.370Z,101418.91
2023-04-28T07:17:58.061Z,101420.91
2023-04-28T07:20:34.555Z,101421.22
2023-04-28T07:23:11.685Z,101419.63
2023-04-28T07:26:16.653Z,101419.59
2023-04-28T07:29:21.861Z,101411.63
2023-04-28T07:32:30.016Z,101418.75
2023-04-28T07:35:28.721Z,101406.78
2023-04-28T07:39:21.198Z,101409.06
2023-04-28T07:41:22.019Z,101409.84
2023-04-28T07:44:11.802Z,101398.66
2023-04-28T07:47:17.311Z,101395.06
2023-04-28T07:54:18.463Z,101395.31
2023-04-28T07:56:35.306Z,101397.59
2023-04-28T07:59:11.059Z,101392.31
2023-04-28T08:01:58.207Z,101394.38
2023-04-28T08:04:38.722Z,101379.31
2023-04-28T08:07:41.585Z,101387.25
2023-04-28T08:10:50.409Z,101381.19
2023-04-28T08:14:14.140Z,101372.03
2023-04-28T08:17:31.738Z,101369.16
2023-04-28T08:20:36.399Z,101375.44
2023-04-28T08:23:45.060Z,101373.38
2023-04-28T08:26:42.356Z,101375.00
2023-04-28T08:29:17.807Z,101366.94
2023-04-28T08:32:04.463Z,101362.13
2023-04-28T08:34:53.937Z,101355.63
2023-04-28T08:37:44.650Z,101355.84
2023-04-28T08:41:06.653Z,101353.53
2023-04-28T08:44:42.277Z,101347.31
2023-04-28T08:48:05.937Z,101343.56
2023-04-28T08:50:48.681Z,101334.72
2023-04-28T08:54:18.822Z,101341.50
2023-04-28T08:57:24.643Z,101339.06
2023-04-28T09:00:46.722Z,101346.66
2023-04-28T09:04:02.304Z,101341.09
2023-04-28T09:06:41.418Z,101348.25
2023-04-28T09:09:37.801Z,101339.69
2023-04-28T09:12:51.696Z,101331.22
2023-04-28T09:15:44.621Z,101335.53
2023-04-28T09:18:33.768Z,101340.72
2023-04-28T09:22:25.542Z,101338.75
2023-04-28T09:25:32.408Z,101334.56
2023-04-28T09:28:35.172Z,101318.53
2023-04-28T09:31:09.706Z,101323.78
2023-04-28T09:36:54.831Z,101316.84
2023-04-28T09:40:23.708Z,101322.69
2023-04-28T09:44:11.665Z,101325.00
2023-04-28T09:47:09.884Z,101322.91
2023-04-28T09:50:15.162Z,101317.00
2023-04-28T09:53:30.673Z,101311.50
2023-04-28T09:56:44.824Z,101320.63
2023-04-28T09:59:55.461Z,101308.53
2023-04-28T10:02:42.772Z,101303.44
2023-04-28T10:05:30.015Z,101297.50
2023-04-28T10:09:23.898Z,101298.31
2023-04-28T10:16:04.409Z,101300.00
2023-04-28T10:19:14.756Z,101305.72
2023-04-28T10:22:30.953Z,101305.28
2023-04-28T10:26:20.317Z,101301.50
2023-04-28T10:29:31.405Z,101311.16
2023-04-28T10:33:01.769Z,101304.34
2023-04-28T10:35:48.560Z,101306.88
2023-04-28T10:38:53.714Z,101303.66
2023-04-28T10:41:53.069Z,101300.13
2023-04-28T10:44:54.392Z,101304.41
2023-04-28T10:48:20.651Z,101299.00
2023-04-28T10:51:18.349Z,101301.81
2023-04-28T10:54:17.036Z,101300.31
2023-04-28T10:58:12.900Z,101309.47
2023-04-28T11:01:51.155Z,101304.97
2023-04-28T11:13:44.830Z,101295.66
2023-04-28T11:16:20.842Z,101308.75
2023-04-28T11:19:41.460Z,101296.94
2023-04-28T11:22:14.081Z,101309.56
2023-04-28T11:25:22.176Z,101309.41
2023-04-28T11:28:48.182Z,101312.22
2023-04-28T11:31:30.382Z,101316.69
2023-04-28T11:34:41.955Z,101309.41
2023-04-28T11:37:27.097Z,101318.22
2023-04-28T11:40:26.998Z,101315.38
2023-04-28T11:44:02.673Z,101310.25
2023-04-28T11:47:23.066Z,101302.84
2023-04-28T11:51:22.116Z,101306.00
2023-04-28T11:54:25.819Z,101304.13
2023-04-28T12:01:03.208Z,101304.47
2023-04-28T12:03:58.656Z,101302.84
2023-04-28T12:06:42.446Z,101300.53
2023-04-28T12:09:32.988Z,101293.81
2023-04-28T12:12:26.322Z,101294.13
2023-04-28T12:18:54.076Z,101296.38
2023-04-28T12:22:01.044Z,101307.66
2023-04-28T12:25:03.009Z,101309.34
2023-04-28T12:27:39.878Z,101298.25
2023-04-28T12:30:56.205Z,101300.00
2023-04-28T12:33:40.294Z,101301.84
2023-04-28T12:36:25.082Z,101301.16
2023-04-28T12:39:20.292Z,101292.94
2023-04-28T12:41:52.819Z,101296.66
2023-04-28T12:44:30.322Z,101289.84
2023-04-28T12:47:16.871Z,101289.97
2023-04-28T12:49:52.097Z,101285.91
2023-04-28T12:52:42.693Z,101286.44
2023-04-28T12:55:42.832Z,101281.84
2023-04-28T12:58:54.765Z,101284.00
2023-04-28T13:02:09.884Z,101283.28
2023-04-28T13:05:22.028Z,101294.28
2023-04-28T13:08:25.441Z,101275.09
2023-04-28T13:11:21.942Z,101275.41
2023-04-28T13:14:53.861Z,101284.72
2023-04-28T13:17:44.200Z,101280.94
2023-04-28T13:24:07.055Z,101272.47
2023-04-28T13:27:02.616Z,101276.72
2023-04-28T13:30:22.938Z,101276.22
2023-04-28T13:33:15.418Z,101293.22
2023-04-28T13:35:45.224Z,101289.06
2023-04-28T13:38:14.863Z,101295.28
2023-04-28T13:40:48.488Z,101282.25
2023-04-28T13:43:21.157Z,101279.97
2023-04-28T13:45:51.672Z,101274.03
2023-04-28T13:48:25.820Z,101278.44
2023-04-28T13:50:55.611Z,101262.19
2023-04-28T13:53:25.060Z,101262.91
2023-04-28T13:55:59.871Z,101259.81
2023-04-28T14:03:24.086Z,101263.78
2023-04-28T14:06:49.382Z,101256.28
2023-04-28T14:10:14.231Z,101255.66
2023-04-28T14:12:49.746Z,101261.81
2023-04-28T14:20:27.868Z,101251.28
2023-04-28T14:23:49.337Z,101258.69
2023-04-28T14:30:17.470Z,101266.47
2023-04-28T14:32:59.786Z,101251.50
2023-04-28T14:35:45.171Z,101260.41
2023-04-28T14:38:21.203Z,101253.03
2023-04-28T14:42:12.727Z,101240.31
2023-04-28T14:51:32.679Z,101240.13
2023-04-28T14:58:24.132Z,101231.94
2023-04-28T16:14:51.776Z,101192.47
2023-04-28T16:17:21.245Z,101179.91
2023-04-28T16:19:51.755Z,101182.44
2023-04-28T16:22:44.856Z,101182.69
2023-04-28T16:25:33.837Z,101174.28
2023-04-28T16:28:30.181Z,101150.72
2023-04-28T16:31:17.327Z,101162.66
2023-04-28T16:33:49.860Z,101173.44
2023-04-28T16:37:00.414Z,101159.56
2023-04-28T16:43:54.267Z,101169.47
2023-04-28T16:46:23.866Z,101146.41
2023-04-28T16:48:53.167Z,101142.25
2023-04-28T16:51:39.098Z,101144.63
2023-04-28T18:04:41.306Z,101092.63
2023-04-28T18:07:10.681Z,101081.75
2023-04-28T18:12:27.066Z,101078.25
2023-04-28T19:37:34.733Z,100930.72
2023-04-28T19:44:37.018Z,100913.44
2023-04-28T20:21:58.764Z,100862.94
2023-04-28T20:25:40.520Z,100838.28
